Time;durP1;ratioP1;P1;durP2;ratioP2;P2;SDS_P1;SDS_P2;PMS_P1;PMS_P2;Temp;Humidity;BMP_temperature;BMP_pressure;BME280_temperature;BME280_humidity;BME280_pressure;Samples;Min_cycle;Max_cycle;Signal;HPM_P1;HPM_P2
2022/04/21 00:01:42;;;;;;;17.57;10.50;;;11.10;23.50;;;;;;5073384;28;20167;-67
2022/04/21 00:04:07;;;;;;;16.67;10.13;;;11.10;23.40;;;;;;5072616;28;20243;-67
2022/04/21 00:06:33;;;;;;;17.63;10.20;;;10.90;24.10;;;;;;5070945;28;20189;-67
2022/04/21 00:08:59;;;;;;;18.57;10.80;;;11.00;23.60;;;;;;5073162;28;20204;-66
2022/04/21 00:11:24;;;;;;;19.20;10.57;;;10.70;25.40;;;;;;5072967;28;20175;-67
2022/04/21 00:13:50;;;;;;;17.83;10.33;;;10.60;25.50;;;;;;5072401;28;20203;-67
2022/04/21 00:16:16;;;;;;;20.70;11.17;;;10.90;23.10;;;;;;5071108;28;20201;-67
2022/04/21 00:18:42;;;;;;;17.70;10.90;;;10.70;24.30;;;;;;5071980;28;20570;-67
2022/04/21 00:21:08;;;;;;;29.08;10.88;;;10.80;24.30;;;;;;5072458;28;20258;-67
2022/04/21 00:23:34;;;;;;;17.87;10.90;;;10.70;24.10;;;;;;5072035;28;20278;-67
2022/04/21 00:26:01;;;;;;;17.33;10.77;;;10.60;24.80;;;;;;5071716;28;20646;-66
2022/04/21 00:28:29;;;;;;;19.75;12.23;;;10.70;24.80;;;;;;5071925;28;20179;-67
2022/04/21 00:30:55;;;;;;;19.25;11.98;;;10.70;25.00;;;;;;5071820;28;20184;-67
2022/04/21 00:33:21;;;;;;;23.10;12.67;;;10.50;25.50;;;;;;5072342;28;20207;-67
2022/04/21 00:35:47;;;;;;;19.67;11.50;;;10.70;25.90;;;;;;5072545;28;20420;-67
2022/04/21 00:38:13;;;;;;;21.60;11.90;;;10.40;26.20;;;;;;5072015;28;20298;-67
2022/04/21 00:40:38;;;;;;;29.40;12.23;;;10.20;26.70;;;;;;5072461;28;20176;-67
2022/04/21 00:43:05;;;;;;;22.30;12.20;;;10.20;26.00;;;;;;5071152;28;20818;-67
2022/04/21 00:45:32;;;;;;;24.92;12.15;;;10.40;24.70;;;;;;5071838;28;20683;-67
2022/04/21 00:47:58;;;;;;;19.60;11.82;;;10.30;26.10;;;;;;5069778;28;20199;-67
2022/04/21 00:50:30;;;;;;;29.50;12.60;;;10.40;25.50;;;;;;5072033;28;20205;-67
2022/04/21 00:52:57;;;;;;;21.35;12.30;;;10.20;26.70;;;;;;5072040;28;20201;-67
2022/04/21 00:55:23;;;;;;;20.50;12.80;;;10.20;26.50;;;;;;5071463;28;20188;-67
2022/04/21 00:57:50;;;;;;;22.70;11.68;;;10.10;26.50;;;;;;5072161;28;20222;-67
2022/04/21 01:00:17;;;;;;;24.33;12.32;;;10.10;25.60;;;;;;5070065;28;20186;-67
2022/04/21 01:02:46;;;;;;;20.98;12.93;;;10.00;27.10;;;;;;5071954;28;20698;-66
2022/04/21 01:05:14;;;;;;;21.35;12.88;;;9.80;28.10;;;;;;5072183;28;20206;-67
2022/04/21 01:07:40;;;;;;;22.92;12.77;;;10.00;26.70;;;;;;5054051;28;20266;-67
2022/04/21 01:10:06;;;;;;;22.10;13.32;;;10.00;27.40;;;;;;5069990;28;20187;-67
2022/04/21 01:12:32;;;;;;;20.88;13.23;;;10.10;27.50;;;;;;5070961;28;20221;-68
2022/04/21 01:14:58;;;;;;;20.70;12.63;;;10.30;25.30;;;;;;5071007;28;20177;-67
2022/04/21 01:17:31;;;;;;;20.97;11.57;;;10.40;24.90;;;;;;5071898;28;20186;-67
2022/04/21 01:19:57;;;;;;;23.95;12.02;;;10.40;25.10;;;;;;5070327;28;20203;-67
2022/04/21 01:22:23;;;;;;;22.07;11.70;;;10.40;25.30;;;;;;5052991;28;20184;-66
2022/04/21 01:24:48;;;;;;;27.93;12.37;;;10.50;25.80;;;;;;5069162;28;20433;-67
2022/04/21 01:27:14;;;;;;;21.00;11.40;;;10.30;25.70;;;;;;5071265;28;20540;-67
2022/04/21 01:29:40;;;;;;;19.00;11.50;;;10.30;25.00;;;;;;5070564;28;20236;-67
2022/04/21 01:32:06;;;;;;;22.03;11.53;;;10.20;25.60;;;;;;5070879;28;20273;-67
2022/04/21 01:34:31;;;;;;;16.10;10.80;;;10.20;25.80;;;;;;5071284;28;20199;-68
2022/04/21 01:42:25;;;;;;;24.77;12.93;;;10.40;24.90;;;;;;5064598;28;20696;-67
2022/04/21 01:44:51;;;;;;;27.40;15.67;;;10.20;25.90;;;;;;5070153;28;20186;-68
2022/04/21 01:47:17;;;;;;;22.63;13.83;;;10.10;25.00;;;;;;5053453;28;20206;-67
2022/04/21 01:49:42;;;;;;;31.53;14.37;;;10.10;26.50;;;;;;5070601;28;20183;-68
2022/04/21 01:52:08;;;;;;;20.47;12.07;;;9.90;27.60;;;;;;5069897;28;20191;-67
2022/04/21 01:54:33;;;;;;;17.50;11.20;;;10.10;25.50;;;;;;5070717;28;20282;-67
2022/04/21 01:56:59;;;;;;;18.30;11.27;;;10.10;25.40;;;;;;5071564;28;20183;-68
2022/04/21 01:59:25;;;;;;;25.73;11.30;;;10.20;26.00;;;;;;5069847;28;21644;-67
2022/04/21 02:01:50;;;;;;;26.60;11.77;;;10.00;26.60;;;;;;5071082;28;20210;-67
2022/04/21 02:04:16;;;;;;;19.70;11.53;;;10.00;26.30;;;;;;5069979;28;20264;-64
2022/04/21 02:06:41;;;;;;;20.10;11.23;;;9.80;28.00;;;;;;5071378;28;20262;-68
2022/04/21 02:09:07;;;;;;;18.57;11.43;;;9.80;27.60;;;;;;5070344;28;20183;-65
2022/04/21 02:11:33;;;;;;;19.37;11.27;;;9.70;28.00;;;;;;5069912;28;20268;-67
2022/04/21 02:13:58;;;;;;;18.20;11.40;;;9.80;27.60;;;;;;5070496;28;20206;-68
2022/04/21 02:16:24;;;;;;;18.50;11.93;;;9.70;28.10;;;;;;5070213;28;20182;-68
2022/04/21 02:18:50;;;;;;;21.13;12.40;;;9.50;28.70;;;;;;5071047;28;20789;-67
2022/04/21 02:21:16;;;;;;;21.08;12.40;;;9.60;28.20;;;;;;5071088;28;20194;-68
2022/04/21 02:23:42;;;;;;;23.37;11.93;;;9.50;28.80;;;;;;5074376;28;20266;-68
2022/04/21 02:26:07;;;;;;;22.07;12.43;;;9.40;29.70;;;;;;5075236;28;20626;-67
2022/04/21 02:28:33;;;;;;;19.00;11.93;;;9.60;28.20;;;;;;5074351;28;20654;-68
2022/04/21 02:30:58;;;;;;;24.83;13.20;;;9.40;29.50;;;;;;5073868;28;20226;-67
2022/04/21 02:33:24;;;;;;;22.23;12.67;;;9.30;30.40;;;;;;5074069;28;20254;-66
2022/04/21 02:35:50;;;;;;;20.73;12.50;;;9.20;30.60;;;;;;5073445;28;20183;-66
2022/04/21 02:38:16;;;;;;;34.50;12.17;;;9.30;29.30;;;;;;5074717;28;21538;-66
2022/04/21 02:40:43;;;;;;;27.20;12.60;;;9.50;28.10;;;;;;5074802;28;20171;-66
2022/04/21 02:43:08;;;;;;;19.38;11.13;;;9.40;27.80;;;;;;5073264;28;20214;-67
2022/04/21 02:45:35;;;;;;;19.57;11.90;;;9.60;27.40;;;;;;5074116;28;20183;-66
2022/04/21 02:48:01;;;;;;;24.45;14.50;;;9.60;27.80;;;;;;5074533;28;20798;-66
2022/04/21 02:50:26;;;;;;;22.00;13.40;;;9.60;27.90;;;;;;5074518;28;20182;-66
2022/04/21 02:52:53;;;;;;;20.57;12.50;;;9.60;28.80;;;;;;5072465;28;20198;-67
2022/04/21 02:58:03;;;;;;;24.83;12.77;;;9.20;29.40;;;;;;5073406;28;20563;-66
2022/04/21 03:00:29;;;;;;;22.50;12.25;;;9.10;30.00;;;;;;5074262;28;20204;-66
2022/04/21 03:02:56;;;;;;;18.90;12.67;;;9.30;28.90;;;;;;5073140;28;20670;-66
2022/04/21 03:05:22;;;;;;;20.23;12.95;;;9.20;29.00;;;;;;5066137;28;20195;-66
2022/04/21 03:07:47;;;;;;;23.87;12.83;;;9.20;28.20;;;;;;5073723;28;20668;-66
2022/04/21 03:10:13;;;;;;;21.73;12.60;;;9.20;29.20;;;;;;5073490;28;20432;-66
2022/04/21 03:12:39;;;;;;;20.05;12.82;;;9.20;28.30;;;;;;5074003;28;20167;-67
2022/04/21 03:15:05;;;;;;;26.60;12.97;;;9.10;29.70;;;;;;5072402;28;20185;-67
2022/04/21 03:17:31;;;;;;;20.88;13.00;;;9.00;29.90;;;;;;5074104;28;20200;-66
2022/04/21 03:19:56;;;;;;;17.90;11.97;;;8.90;32.10;;;;;;5072524;28;20292;-66
2022/04/21 03:25:10;;;;;;;25.00;12.30;;;8.80;30.90;;;;;;5072683;28;20213;-67
2022/04/21 03:27:36;;;;;;;19.95;11.98;;;8.80;30.80;;;;;;5073737;28;20221;-67
2022/04/21 03:30:08;;;;;;;22.23;11.40;;;8.90;29.10;;;;;;5072978;28;20220;-66
2022/04/21 03:32:34;;;;;;;25.83;11.88;;;8.70;29.00;;;;;;5065866;28;20238;-68
2022/04/21 03:35:01;;;;;;;19.23;12.10;;;8.60;29.40;;;;;;5072040;28;20187;-66
2022/04/21 03:37:27;;;;;;;19.80;11.73;;;8.60;29.50;;;;;;5073792;28;20175;-67
2022/04/21 03:39:53;;;;;;;31.00;12.60;;;8.50;29.40;;;;;;5072580;28;20207;-67
2022/04/21 03:42:24;;;;;;;21.93;12.30;;;8.60;30.80;;;;;;5073341;28;20618;-65
2022/04/21 03:44:51;;;;;;;22.23;12.35;;;8.80;29.20;;;;;;5072538;28;20183;-67
2022/04/21 03:47:17;;;;;;;21.02;12.43;;;8.80;29.00;;;;;;5073294;28;20187;-67
2022/04/21 03:49:43;;;;;;;30.63;11.45;;;8.90;29.40;;;;;;5072775;28;20179;-65
2022/04/21 03:52:11;;;;;;;20.13;11.70;;;8.80;29.90;;;;;;5072487;28;20232;-65
2022/04/21 03:54:38;;;;;;;22.80;12.80;;;8.90;28.60;;;;;;5072824;28;20274;-65
2022/04/21 03:57:04;;;;;;;21.75;12.25;;;8.90;30.00;;;;;;5070937;28;20206;-67
2022/04/21 03:59:30;;;;;;;22.08;12.35;;;8.70;29.60;;;;;;5073094;28;20199;-67
2022/04/21 04:02:02;;;;;;;20.50;11.63;;;8.70;30.60;;;;;;5073122;28;20194;-67
2022/04/21 04:04:32;;;;;;;31.35;12.10;;;8.60;30.60;;;;;;5072718;28;20214;-67
2022/04/21 04:12:35;;;;;;;29.40;14.38;;;8.70;30.40;;;;;;5072027;28;20560;-67
2022/04/21 04:15:02;;;;;;;25.50;14.02;;;8.50;32.00;;;;;;5072875;28;20170;-67
2022/04/21 04:17:28;;;;;;;26.58;12.10;;;8.30;30.60;;;;;;5071542;28;20689;-67
2022/04/21 04:19:53;;;;;;;20.00;12.70;;;8.30;30.80;;;;;;5072882;28;20211;-65
2022/04/21 04:22:19;;;;;;;25.43;13.60;;;8.30;31.90;;;;;;5073063;28;20421;-67
2022/04/21 04:24:45;;;;;;;27.20;13.37;;;8.40;30.80;;;;;;5073079;28;20608;-67
2022/04/21 04:27:11;;;;;;;24.37;14.03;;;8.60;29.80;;;;;;5071830;28;20677;-67
2022/04/21 04:29:37;;;;;;;24.00;15.02;;;8.70;29.30;;;;;;5070160;28;20417;-65
2022/04/21 04:32:03;;;;;;;26.47;14.50;;;8.60;29.70;;;;;;5070288;28;20183;-67
2022/04/21 04:34:28;;;;;;;23.63;14.17;;;8.50;32.00;;;;;;5072401;28;20195;-66
2022/04/21 04:36:54;;;;;;;33.17;14.80;;;8.50;31.90;;;;;;5072528;28;20405;-67
2022/04/21 04:39:19;;;;;;;26.70;13.60;;;8.80;31.10;;;;;;5071031;28;20214;-67
2022/04/21 04:44:29;;;;;;;20.67;12.63;;;8.60;30.20;;;;;;5071665;28;20214;-67
2022/04/21 04:46:56;;;;;;;23.23;13.80;;;8.40;30.70;;;;;;5072009;28;20172;-69
2022/04/21 04:49:21;;;;;;;30.77;13.50;;;8.20;30.60;;;;;;5070698;28;20433;-67
2022/04/21 04:51:47;;;;;;;35.63;13.50;;;8.10;31.10;;;;;;5072023;28;20179;-67
2022/04/21 04:54:14;;;;;;;24.83;13.33;;;8.10;31.40;;;;;;5071034;28;20191;-67
2022/04/21 04:56:42;;;;;;;26.10;14.20;;;8.20;31.30;;;;;;5069464;28;20441;-66
2022/04/21 04:59:08;;;;;;;23.50;13.63;;;8.20;31.00;;;;;;5068234;28;20301;-67
2022/04/21 05:01:34;;;;;;;28.30;13.77;;;8.30;30.30;;;;;;5069391;28;20266;-67
2022/04/21 05:04:05;;;;;;;28.05;14.85;;;8.20;30.50;;;;;;5069961;28;20195;-67
2022/04/21 05:06:35;;;;;;;37.25;15.10;;;8.30;31.50;;;;;;5068220;28;20182;-67
2022/04/21 05:09:01;;;;;;;25.27;14.23;;;8.30;30.00;;;;;;5069725;28;20756;-66
2022/04/21 05:11:26;;;;;;;28.60;15.90;;;8.10;31.60;;;;;;5069424;28;20270;-67
2022/04/21 05:13:52;;;;;;;29.20;14.90;;;8.30;31.00;;;;;;5070782;28;21163;-67
2022/04/21 05:16:17;;;;;;;39.43;15.50;;;8.30;31.20;;;;;;5070588;28;20258;-67
2022/04/21 05:18:43;;;;;;;25.10;14.30;;;8.50;31.50;;;;;;5071365;28;20195;-67
2022/04/21 05:21:09;;;;;;;27.33;14.60;;;8.60;30.50;;;;;;5070501;28;20175;-67
2022/04/21 05:23:37;;;;;;;27.83;14.70;;;8.70;30.30;;;;;;5071526;28;20199;-66
2022/04/21 05:26:03;;;;;;;31.98;15.85;;;8.60;30.10;;;;;;5053121;28;20813;-67
2022/04/21 05:28:30;;;;;;;31.50;15.00;;;8.60;30.30;;;;;;5071649;28;20258;-67
2022/04/21 05:31:01;;;;;;;30.02;15.30;;;8.80;30.10;;;;;;5070049;28;20667;-67
2022/04/21 05:33:28;;;;;;;31.48;15.88;;;9.10;30.50;;;;;;5066829;28;20207;-67
2022/04/21 05:35:55;;;;;;;31.67;14.25;;;9.10;29.50;;;;;;5071341;28;20187;-67
2022/04/21 05:38:22;;;;;;;29.52;15.10;;;9.20;29.00;;;;;;5071530;28;20191;-67
2022/04/21 05:40:49;;;;;;;28.25;15.32;;;9.20;30.20;;;;;;5069800;28;20172;-67
2022/04/21 05:43:20;;;;;;;27.13;16.13;;;9.30;29.80;;;;;;5070832;28;20214;-67
2022/04/21 05:45:47;;;;;;;28.77;15.68;;;9.30;29.70;;;;;;5070395;28;20175;-65
2022/04/21 05:48:14;;;;;;;23.15;14.40;;;9.50;28.50;;;;;;5070892;28;20668;-66
2022/04/21 05:50:42;;;;;;;31.60;15.55;;;9.30;28.50;;;;;;5070141;28;20199;-67
2022/04/21 05:53:11;;;;;;;24.30;15.35;;;9.60;28.70;;;;;;5070614;28;20203;-67
2022/04/21 05:55:36;;;;;;;20.38;13.85;;;9.70;28.50;;;;;;5070337;28;20180;-67
2022/04/21 05:58:02;;;;;;;21.73;13.67;;;10.00;27.60;;;;;;5071307;28;20226;-67
2022/04/21 06:00:28;;;;;;;24.00;14.90;;;9.70;27.90;;;;;;5071288;28;20410;-66
2022/04/21 06:02:54;;;;;;;25.50;14.37;;;9.80;27.80;;;;;;5069813;28;20496;-67
2022/04/21 06:05:20;;;;;;;22.60;14.95;;;9.80;28.30;;;;;;5069780;28;20286;-66
2022/04/21 06:07:45;;;;;;;25.43;14.60;;;10.00;27.30;;;;;;5071132;28;20275;-67
2022/04/21 06:10:11;;;;;;;26.43;15.53;;;10.00;27.50;;;;;;5070518;28;20565;-67
2022/04/21 06:12:38;;;;;;;26.03;14.33;;;10.00;28.40;;;;;;5069826;28;20183;-67
2022/04/21 06:15:03;;;;;;;28.13;16.42;;;10.50;27.20;;;;;;5070713;28;20649;-67
2022/04/21 06:17:29;;;;;;;28.43;14.93;;;10.70;27.20;;;;;;5068738;28;20266;-67
2022/04/21 06:19:56;;;;;;;34.20;16.27;;;10.30;27.40;;;;;;5070511;28;20537;-67
2022/04/21 06:22:21;;;;;;;36.13;17.02;;;10.30;27.90;;;;;;5053438;28;20248;-67
2022/04/21 06:24:47;;;;;;;26.90;16.60;;;10.50;28.20;;;;;;5070831;28;20227;-67
2022/04/21 06:27:12;;;;;;;25.70;16.00;;;10.50;28.00;;;;;;5070139;28;20264;-65
2022/04/21 06:29:38;;;;;;;28.00;15.80;;;10.60;27.10;;;;;;5070901;28;20180;-66
2022/04/21 06:32:04;;;;;;;28.07;16.10;;;10.40;27.70;;;;;;5069993;28;20189;-67
2022/04/21 06:34:32;;;;;;;29.48;17.15;;;10.20;28.00;;;;;;5069147;28;20677;-67
2022/04/21 06:37:00;;;;;;;26.85;16.13;;;10.20;28.50;;;;;;5070733;28;20182;-66
2022/04/21 06:39:26;;;;;;;30.35;17.25;;;9.80;29.80;;;;;;5069665;28;20203;-67
2022/04/21 06:41:52;;;;;;;40.03;17.13;;;10.00;29.00;;;;;;5069623;28;20185;-67
2022/04/21 06:49:46;;;;;;;36.65;16.83;;;10.50;27.50;;;;;;5069632;28;20194;-67
2022/04/21 06:52:11;;;;;;;43.97;17.43;;;10.00;29.00;;;;;;5070121;28;20182;-66
2022/04/21 06:54:37;;;;;;;32.63;17.43;;;10.10;28.20;;;;;;5070361;28;20328;-67
2022/04/21 06:57:03;;;;;;;26.57;16.73;;;10.30;28.30;;;;;;5070226;28;20217;-66
2022/04/21 06:59:28;;;;;;;35.27;17.50;;;10.10;29.20;;;;;;5068652;28;20207;-67
2022/04/21 07:01:54;;;;;;;28.10;17.87;;;10.30;29.90;;;;;;5070054;28;20716;-69
2022/04/21 07:04:20;;;;;;;37.80;17.93;;;10.80;28.00;;;;;;5070437;28;20202;-68
2022/04/21 07:06:46;;;;;;;30.10;17.37;;;10.50;28.70;;;;;;5070737;28;20281;-68
2022/04/21 07:09:12;;;;;;;33.83;19.03;;;10.40;28.40;;;;;;5073698;28;20435;-68
2022/04/21 07:11:38;;;;;;;57.03;17.90;;;10.30;28.90;;;;;;5072889;28;20437;-67
2022/04/21 07:14:04;;;;;;;29.60;16.70;;;11.20;27.40;;;;;;5072067;28;20202;-68
2022/04/21 07:16:30;;;;;;;26.30;16.90;;;11.10;27.90;;;;;;5073760;28;20412;-67
2022/04/21 07:18:55;;;;;;;31.73;17.73;;;10.50;29.40;;;;;;5073676;28;20544;-68
2022/04/21 07:21:21;;;;;;;30.03;17.00;;;10.90;29.00;;;;;;5072698;28;20618;-68
2022/04/21 07:23:47;;;;;;;26.80;17.40;;;10.60;29.50;;;;;;5073553;28;20577;-67
2022/04/21 07:26:12;;;;;;;30.33;17.97;;;10.30;30.00;;;;;;5073900;28;20549;-66
2022/04/21 07:28:38;;;;;;;27.30;17.70;;;10.70;28.90;;;;;;5073532;28;20254;-65
2022/04/21 07:31:04;;;;;;;25.43;16.80;;;11.00;28.50;;;;;;5072472;28;20187;-66
2022/04/21 07:33:30;;;;;;;28.47;17.07;;;11.70;28.80;;;;;;5072546;28;20504;-66
2022/04/21 07:35:55;;;;;;;28.53;17.20;;;12.50;26.60;;;;;;5073870;28;20175;-67
2022/04/21 07:38:21;;;;;;;27.97;18.00;;;12.30;25.90;;;;;;5072903;28;20214;-67
2022/04/21 07:40:50;;;;;;;26.53;18.10;;;12.80;26.10;;;;;;5070018;28;20175;-67
2022/04/21 07:43:16;;;;;;;34.80;18.97;;;13.40;25.30;;;;;;5070811;28;20470;-67
2022/04/21 07:45:44;;;;;;;30.50;18.63;;;13.60;24.90;;;;;;5072661;28;20928;-67
2022/04/21 07:48:10;;;;;;;29.43;18.43;;;13.70;24.30;;;;;;5073301;28;20430;-67
2022/04/21 07:50:36;;;;;;;31.00;17.13;;;12.80;25.60;;;;;;5054720;28;20456;-67
2022/04/21 07:53:15;;;;;;;28.63;18.00;;;12.90;26.30;;;;;;5072793;28;20430;-67
2022/04/21 07:55:50;;;;;;;32.73;17.70;;;13.20;25.20;;;;;;5069734;28;20441;-66
2022/04/21 07:58:16;;;;;;;23.43;16.90;;;13.40;24.80;;;;;;5071916;28;20481;-66
2022/04/21 08:00:42;;;;;;;31.50;18.33;;;12.70;26.00;;;;;;5071635;28;20438;-67
2022/04/21 08:03:08;;;;;;;28.23;18.37;;;12.60;26.40;;;;;;5067937;28;20759;-67
2022/04/21 08:05:33;;;;;;;29.90;19.23;;;12.80;27.50;;;;;;5072040;28;20347;-66
2022/04/21 08:08:00;;;;;;;36.87;21.10;;;13.20;26.80;;;;;;5071246;28;20463;-67
2022/04/21 08:10:27;;;;;;;27.83;18.47;;;13.70;25.40;;;;;;5069632;28;20458;-67
2022/04/21 08:12:54;;;;;;;33.23;20.20;;;14.00;24.80;;;;;;5068570;28;20913;-66
2022/04/21 08:15:24;;;;;;;28.90;19.07;;;14.00;24.80;;;;;;5071063;28;20422;-67
2022/04/21 08:17:51;;;;;;;29.30;19.33;;;14.10;24.30;;;;;;5069936;28;20425;-67
2022/04/21 08:20:16;;;;;;;31.33;20.07;;;14.50;24.30;;;;;;5072081;28;20498;-67
2022/04/21 08:22:43;;;;;;;30.93;20.20;;;14.60;24.00;;;;;;5070236;28;20909;-68
2022/04/21 08:33:22;;;;;;;33.33;20.50;;;13.70;24.90;;;;;;5072635;28;20562;-67
2022/04/21 08:35:49;;;;;;;37.83;20.90;;;14.10;24.70;;;;;;5072312;28;20453;-67
2022/04/21 08:38:16;;;;;;;29.63;19.53;;;13.60;25.40;;;;;;5072599;28;20223;-66
2022/04/21 08:40:49;;;;;;;31.90;20.13;;;13.60;25.80;;;;;;5072287;28;20802;-66
2022/04/21 08:43:15;;;;;;;49.03;19.20;;;13.90;25.50;;;;;;5081904;28;20448;-66
2022/04/21 08:45:45;;;;;;;26.27;19.70;;;14.80;25.00;;;;;;5092481;28;20427;-68
2022/04/21 08:48:12;;;;;;;41.57;21.37;;;14.90;25.00;;;;;;5082723;28;20444;-68
2022/04/21 08:50:38;;;;;;;49.27;19.70;;;15.30;23.80;;;;;;5067837;28;20437;-68
2022/04/21 08:53:06;;;;;;;31.13;19.60;;;15.10;23.90;;;;;;5070976;28;20807;-69
2022/04/21 08:55:32;;;;;;;32.20;20.50;;;15.30;22.90;;;;;;5066958;28;20436;-68
2022/04/21 08:57:59;;;;;;;45.47;19.90;;;14.60;24.00;;;;;;5072195;28;20489;-67
2022/04/21 09:00:25;;;;;;;28.63;19.40;;;14.10;24.70;;;;;;5071175;28;20463;-67
2022/04/21 09:02:51;;;;;;;33.50;20.03;;;14.00;25.70;;;;;;5066830;28;20540;-67
2022/04/21 09:05:20;;;;;;;33.53;20.60;;;13.80;25.60;;;;;;5069979;28;20482;-67
2022/04/21 09:07:50;;;;;;;29.97;20.10;;;14.00;25.80;;;;;;5070608;28;20459;-67
2022/04/21 09:10:17;;;;;;;30.83;20.03;;;14.10;25.70;;;;;;5072270;28;20483;-67
2022/04/21 09:12:55;;;;;;;34.50;19.07;;;14.30;24.80;;;;;;5069058;28;20461;-67
2022/04/21 09:15:27;;;;;;;32.20;20.37;;;14.20;25.50;;;;;;5070778;28;20441;-66
2022/04/21 09:18:00;;;;;;;32.37;21.20;;;14.90;24.50;;;;;;5070760;28;21029;-67
2022/04/21 09:20:33;;;;;;;29.10;20.50;;;14.30;25.30;;;;;;5069473;28;20955;-75
2022/04/21 09:23:00;;;;;;;29.80;19.87;;;14.90;25.50;;;;;;5070015;28;20458;-67
2022/04/21 09:25:44;;;;;;;38.10;21.07;;;15.80;24.90;;;;;;5069715;28;20438;-68
2022/04/21 09:28:36;;;;;;;30.30;20.53;;;16.20;23.20;;;;;;5072037;28;20441;-68
2022/04/21 09:31:02;;;;;;;28.80;19.70;;;16.00;23.10;;;;;;5065287;28;20435;-68
2022/04/21 09:33:29;;;;;;;33.73;20.50;;;15.80;23.00;;;;;;5069180;28;20547;-68
2022/04/21 09:35:56;;;;;;;29.07;19.40;;;16.40;23.30;;;;;;5070390;28;20504;-68
2022/04/21 09:38:22;;;;;;;28.67;18.33;;;17.10;21.50;;;;;;5069351;28;20500;-68
2022/04/21 09:40:49;;;;;;;29.87;19.00;;;17.10;22.00;;;;;;5069339;28;20515;-68
2022/04/21 09:43:28;;;;;;;27.73;19.30;;;17.20;21.70;;;;;;5067105;28;20216;-68
2022/04/21 09:46:09;;;;;;;37.53;21.03;;;17.00;21.40;;;;;;5068744;28;20943;-67
2022/04/21 09:48:35;;;;;;;26.50;19.13;;;16.80;21.90;;;;;;5063708;28;20437;-70
2022/04/21 09:51:11;;;;;;;28.80;19.63;;;17.00;22.60;;;;;;5069539;28;20530;-68
2022/04/21 09:53:58;;;;;;;33.53;19.33;;;16.80;21.70;;;;;;5070235;28;20452;-67
2022/04/21 09:56:36;;;;;;;31.47;19.10;;;17.30;21.90;;;;;;5068838;28;20472;-67
2022/04/21 09:59:04;;;;;;;31.20;18.53;;;16.10;22.60;;;;;;5067772;28;20548;-67
2022/04/21 10:01:29;;;;;;;29.70;17.50;;;16.40;21.20;;;;;;5067482;28;20439;-68
2022/04/21 10:03:56;;;;;;;24.90;17.10;;;15.70;22.90;;;;;;5091718;22;20487;-68
2022/04/21 10:06:22;;;;;;;26.00;18.00;;;15.80;22.10;;;;;;5124318;27;20246;-67
2022/04/21 10:08:51;;;;;;;26.97;17.17;;;16.70;20.60;;;;;;5125734;28;20424;-67
2022/04/21 10:11:23;;;;;;;26.80;17.03;;;17.00;21.80;;;;;;5131947;27;20414;-65
2022/04/21 10:13:53;;;;;;;29.80;17.20;;;17.70;19.70;;;;;;5127593;28;20470;-65
2022/04/21 10:16:19;;;;;;;25.80;17.73;;;17.70;19.60;;;;;;5111340;28;20414;-65
2022/04/21 10:18:50;;;;;;;21.90;15.73;;;16.80;20.80;;;;;;5109924;28;20463;-67
2022/04/21 10:21:38;;;;;;;24.17;17.00;;;17.40;21.80;;;;;;5110930;28;20166;-65
2022/04/21 10:24:05;;;;;;;21.63;15.63;;;18.10;18.80;;;;;;5094941;28;20975;-66
2022/04/21 10:26:43;;;;;;;24.00;15.83;;;18.60;18.20;;;;;;5111186;28;20497;-66
2022/04/21 10:29:27;;;;;;;20.07;14.57;;;16.80;20.20;;;;;;5108254;28;20480;-68
2022/04/21 10:32:11;;;;;;;23.90;15.30;;;16.50;20.30;;;;;;5096643;28;20418;-65
2022/04/21 10:34:43;;;;;;;22.00;14.90;;;16.80;20.00;;;;;;5100624;28;21257;-66
2022/04/21 10:37:15;;;;;;;22.80;14.60;;;18.60;19.40;;;;;;5098964;28;20431;-67
2022/04/21 10:40:01;;;;;;;31.80;14.23;;;17.30;18.80;;;;;;5091992;28;20493;-66
2022/04/21 10:42:27;;;;;;;17.33;13.70;;;16.50;20.30;;;;;;5098313;28;20426;-65
2022/04/21 10:44:54;;;;;;;19.63;14.13;;;16.60;21.20;;;;;;5103042;28;20520;-66
2022/04/21 10:47:30;;;;;;;20.97;14.40;;;17.80;18.40;;;;;;5105587;28;20518;-66
2022/04/21 10:50:20;;;;;;;23.00;13.87;;;18.30;18.40;;;;;;5104733;28;20485;-67
2022/04/21 10:58:34;;;;;;;19.63;14.47;;;19.40;18.40;;;;;;5105210;28;20882;-68
2022/04/21 11:01:17;;;;;;;21.03;14.67;;;19.80;16.70;;;;;;5111971;28;20474;-67
2022/04/21 11:03:45;;;;;;;19.37;13.80;;;19.80;16.70;;;;;;5105365;28;20455;-67
2022/04/21 11:06:15;;;;;;;22.13;13.83;;;20.40;16.70;;;;;;5087748;28;20950;-67
2022/04/21 11:08:44;;;;;;;23.87;13.50;;;20.00;15.80;;;;;;5106774;28;20469;-67
2022/04/21 11:11:11;;;;;;;20.70;13.53;;;19.00;18.00;;;;;;5101942;28;21134;-68
2022/04/21 11:13:40;;;;;;;17.80;13.17;;;19.70;17.50;;;;;;5104736;28;20441;-67
2022/04/21 11:16:06;;;;;;;20.70;13.20;;;20.30;16.30;;;;;;5102985;28;20444;-68
2022/04/21 11:18:32;;;;;;;18.63;12.77;;;20.20;19.00;;;;;;5100614;28;20463;-67
2022/04/21 11:21:26;;;;;;;16.87;12.30;;;20.60;17.20;;;;;;5103803;28;20595;-67
2022/04/21 11:23:52;;;;;;;16.60;11.93;;;22.00;16.20;;;;;;5105425;28;20925;-68
2022/04/21 11:26:24;;;;;;;20.43;12.30;;;23.50;13.80;;;;;;5101270;28;20560;-69
2022/04/21 11:28:50;;;;;;;14.07;10.60;;;22.70;16.20;;;;;;5104549;28;20229;-68
2022/04/21 11:31:20;;;;;;;14.93;11.60;;;24.70;15.30;;;;;;5099741;28;20530;-67
2022/04/21 11:33:47;;;;;;;14.10;11.00;;;23.70;13.90;;;;;;5104299;28;20443;-69
2022/04/21 11:36:14;;;;;;;14.20;10.57;;;24.60;13.40;;;;;;5096474;28;20438;-68
2022/04/21 11:38:45;;;;;;;20.43;11.13;;;24.80;12.80;;;;;;5104320;28;20459;-69
2022/04/21 11:41:12;;;;;;;13.43;10.87;;;24.10;11.90;;;;;;5101139;28;20440;-69
2022/04/21 11:43:48;;;;;;;14.23;10.40;;;23.70;11.80;;;;;;5080683;28;20451;-68
2022/04/21 11:46:14;;;;;;;27.33;9.83;;;22.90;14.30;;;;;;5097236;28;20961;-69
2022/04/21 11:48:41;;;;;;;18.73;9.60;;;24.90;12.40;;;;;;5094981;28;20431;-69
2022/04/21 11:51:08;;;;;;;10.43;9.00;;;23.20;14.50;;;;;;5095206;28;20443;-68
2022/04/21 11:53:42;;;;;;;13.63;10.70;;;24.60;13.40;;;;;;5099030;28;20431;-67
2022/04/21 11:56:10;;;;;;;11.27;8.50;;;25.10;11.70;;;;;;5104375;28;20423;-69
2022/04/21 11:58:38;;;;;;;12.70;9.90;;;26.20;10.80;;;;;;5103051;28;20559;-68
2022/04/21 12:06:52;;;;;;;11.63;9.37;;;27.20;11.10;;;;;;5108151;28;20815;-69
2022/04/21 12:09:20;;;;;;;13.20;8.13;;;27.90;10.30;;;;;;5109904;28;20435;-69
2022/04/21 12:11:57;;;;;;;12.13;8.60;;;26.90;10.90;;;;;;5098586;28;20435;-68
2022/04/21 12:14:24;;;;;;;10.63;7.70;;;28.10;8.80;;;;;;5098550;28;20455;-68
2022/04/21 12:16:53;;;;;;;13.23;8.77;;;28.70;9.70;;;;;;5098039;28;20823;-68
2022/04/21 12:19:39;;;;;;;10.00;8.03;;;27.80;9.30;;;;;;5113385;28;20550;-70
2022/04/21 12:22:10;;;;;;;12.87;8.20;;;28.70;8.00;;;;;;5102454;28;20436;-69
2022/04/21 12:24:38;;;;;;;18.67;8.33;;;29.70;7.40;;;;;;5106632;28;21006;-68
2022/04/21 12:27:14;;;;;;;11.43;8.30;;;30.40;7.40;;;;;;5112533;28;20432;-69
2022/04/21 12:29:51;;;;;;;8.93;7.20;;;30.30;7.90;;;;;;5099874;28;20970;-69
2022/04/21 12:32:19;;;;;;;16.60;7.90;;;30.60;6.80;;;;;;5094802;28;20446;-70
2022/04/21 12:34:45;;;;;;;9.33;7.90;;;30.70;5.90;;;;;;5099408;28;20463;-70
2022/04/21 12:37:11;;;;;;;19.00;7.70;;;31.30;5.80;;;;;;5103008;28;20423;-69
2022/04/21 12:39:37;;;;;;;9.30;7.57;;;31.30;7.60;;;;;;5102792;28;20185;-69
2022/04/21 12:42:03;;;;;;;12.70;7.40;;;31.50;6.20;;;;;;5095361;28;20181;-69
2022/04/21 12:44:29;;;;;;;7.77;6.70;;;30.10;6.40;;;;;;5099837;28;20424;-69
2022/04/21 12:47:12;;;;;;;16.23;7.63;;;29.90;7.80;;;;;;5108102;28;21035;-69
2022/04/21 12:50:01;;;;;;;13.57;7.70;;;28.90;8.10;;;;;;5113214;28;20411;-68
2022/04/21 12:52:49;;;;;;;15.00;7.70;;;28.00;9.70;;;;;;5112508;28;20435;-68
2022/04/21 12:55:19;;;;;;;10.40;8.20;;;26.00;10.50;;;;;;5087030;28;20862;-69
2022/04/21 12:58:00;;;;;;;9.93;8.10;;;25.90;11.10;;;;;;5092165;28;20914;-68
2022/04/21 13:00:26;;;;;;;9.80;8.10;;;25.00;11.00;;;;;;5092503;28;20523;-72
2022/04/21 13:02:52;;;;;;;13.47;7.90;;;24.70;15.00;;;;;;5099036;28;20494;-69
2022/04/21 13:05:17;;;;;;;13.23;8.37;;;25.70;11.40;;;;;;5090171;28;20205;-68
2022/04/21 13:07:43;;;;;;;8.53;7.60;;;26.00;11.80;;;;;;5092268;28;20251;-68
2022/04/21 13:10:09;;;;;;;12.80;8.00;;;26.30;12.90;;;;;;5092337;28;20186;-69
2022/04/21 13:12:34;;;;;;;16.40;8.17;;;26.40;10.60;;;;;;5091822;28;20170;-69
2022/04/21 13:15:01;;;;;;;9.77;8.30;;;26.60;10.80;;;;;;5092395;28;20201;-68
2022/04/21 13:17:27;;;;;;;15.80;8.20;;;26.70;10.00;;;;;;5103246;28;20174;-68
2022/04/21 13:19:53;;;;;;;16.60;6.70;;;26.20;11.50;;;;;;5092633;28;20455;-69
2022/04/21 13:22:18;;;;;;;9.60;6.77;;;26.90;9.70;;;;;;5096064;28;20214;-69